Impacts TAF Board
For situational awareness. Not to be used for flight planning purposes.
IDs:

KCNU - Chanute/Johnson Arpt, KS, US

Issued at 1127 UTC 10 Aug 2022
Updated at 1359 UTC 10 Aug 2022
Potential Impact None Slight Moderate High
Time1352Z 10/14Z 10/15Z 10/16Z 10/17Z 10/18Z 10/19Z 10/20Z 10/21Z 10/22Z 10/23Z 11/00Z 11/01Z 11/02Z>>
Type OBS PRVL PRVL PRVL PRVL PRVL PRVL PRVL PRVL PRVL PRVL PRVL PRVL PRVL
VIS 10 >6 >6 >6 >6 >6 >6 >6 >6 >6 >6 >6 >6 >6
CIG -- 40 40 -- -- -- -- -- -- -- -- -- -- --
Cover CLR BKN BKN SKC SKC SKC SKC SKC SKC SKC SKC SKC SKC SKC
FltCat VFR VFR VFR VFR VFR VFR VFR VFR VFR VFR VFR VFR VFR VFR
WX -- -- -- -- -- -- -- -- -- -- -- -- -- --
WDir 60 50 50 50 50 50 50 50 50 50 50 50 50 50
WSpd 6 4 4 7 7 7 7 7 7 7 7 7 7 7
WGst -- -- -- -- -- -- -- -- -- -- -- -- -- --
WSHgt -- -- -- -- -- -- -- -- -- -- -- -- -- --
WSDir -- -- -- -- -- -- -- -- -- -- -- -- -- --
WSSpd -- -- -- -- -- -- -- -- -- -- -- -- -- --
Raw TAF
KCNU 101127Z 1012/1112 05004KT P6SM BKN040
  FM101600 05007KT P6SM SKC


Raw METAR
KCNU 101352Z AUTO 06006KT 10SM CLR 27/19 A3017 RMK AO2 SLP204 T02670194
KCNU 101252Z AUTO 06004KT 10SM FEW040 23/19 A3016 RMK AO2 SLP201 T02330189
KCNU 101152Z AUTO 06005KT 10SM FEW041 22/19 A3014 RMK AO2 SLP193 T02220189 10250 20222 53011
KCNU 101052Z AUTO 04005KT 10SM BKN041 23/19 A3012 RMK AO2 SLP186 T02280189

METAR Board
Radar Display
Forecast Discussion
For situational awareness. Not to be used for flight planning purposes.